createdAt,value
2023-02-04T00:00:38.869Z,5.30
2023-02-04T00:03:07.630Z,5.30
2023-02-04T00:05:35.923Z,5.30
2023-02-04T00:08:07.361Z,5.20
2023-02-04T00:10:36.180Z,5.20
2023-02-04T00:13:04.822Z,5.30
2023-02-04T00:15:34.449Z,5.20
2023-02-04T00:18:03.308Z,5.20
2023-02-04T00:20:31.806Z,5.20
2023-02-04T00:23:00.318Z,5.20
2023-02-04T00:25:28.667Z,5.20
2023-02-04T00:27:56.916Z,5.20
2023-02-04T00:30:25.154Z,5.20
2023-02-04T00:32:56.670Z,5.20
2023-02-04T00:35:25.365Z,5.20
2023-02-04T00:37:53.850Z,5.20
2023-02-04T00:40:22.204Z,5.20
2023-02-04T00:42:50.438Z,5.20
2023-02-04T00:45:18.755Z,5.20
2023-02-04T00:47:47.001Z,5.20
2023-02-04T00:50:16.906Z,5.20
2023-02-04T00:52:45.258Z,5.20
2023-02-04T00:55:17.003Z,5.30
2023-02-04T00:57:47.085Z,5.30
2023-02-04T01:00:16.980Z,5.20
2023-02-04T01:02:45.317Z,5.20
2023-02-04T01:05:13.559Z,5.20
2023-02-04T01:07:43.224Z,5.20
2023-02-04T01:10:12.184Z,5.20
2023-02-04T01:12:40.401Z,5.20
2023-02-04T01:15:09.372Z,5.20
2023-02-04T01:17:37.619Z,5.20
2023-02-04T01:20:06.096Z,5.10
2023-02-04T01:22:34.324Z,5.20
2023-02-04T01:25:03.936Z,5.20
2023-02-04T01:27:32.205Z,5.20
2023-02-04T01:30:00.538Z,5.20
2023-02-04T01:32:28.793Z,5.20
2023-02-04T01:34:57.328Z,5.20
2023-02-04T01:37:25.597Z,5.20
2023-02-04T01:39:53.822Z,5.30
2023-02-04T01:42:23.508Z,5.30
2023-02-04T01:44:52.323Z,5.30
2023-02-04T01:47:21.776Z,5.30
2023-02-04T01:49:53.830Z,5.30
2023-02-04T01:52:23.036Z,5.30
2023-02-04T01:54:51.327Z,5.40
2023-02-04T01:57:19.705Z,5.40
2023-02-04T01:59:52.977Z,5.30
2023-02-04T02:02:41.026Z,5.30
2023-02-04T02:05:11.124Z,5.20
2023-02-04T02:07:39.706Z,5.20
2023-02-04T02:10:10.027Z,5.10
2023-02-04T02:12:38.465Z,5.20
2023-02-04T02:15:09.796Z,5.10
2023-02-04T02:17:38.696Z,5.20
2023-02-04T02:20:09.132Z,5.20
2023-02-04T02:22:42.250Z,5.20
2023-02-04T02:25:14.889Z,5.20
2023-02-04T02:27:43.165Z,5.20
2023-02-04T02:30:12.927Z,5.20
2023-02-04T02:32:41.475Z,5.20
2023-02-04T02:35:10.400Z,5.20
2023-02-04T02:37:38.718Z,5.20
2023-02-04T02:40:08.382Z,5.20
2023-02-04T02:42:38.781Z,5.10
2023-02-04T02:45:13.498Z,5.10
2023-02-04T02:47:41.708Z,5.10
2023-02-04T02:50:17.176Z,5.10
2023-02-04T02:52:45.444Z,5.00
2023-02-04T02:55:17.634Z,5.00
2023-02-04T02:57:49.096Z,5.00
2023-02-04T03:00:20.112Z,5.00
2023-02-04T03:02:56.495Z,5.00
2023-02-04T03:05:25.684Z,5.00
2023-02-04T03:07:54.093Z,5.00
2023-02-04T03:10:22.282Z,5.00
2023-02-04T03:12:51.999Z,4.90
2023-02-04T03:15:20.505Z,4.90
2023-02-04T03:17:49.192Z,4.90
2023-02-04T03:20:17.763Z,4.90
2023-02-04T03:22:45.997Z,4.90
2023-02-04T03:25:14.269Z,4.90
2023-02-04T03:27:42.513Z,4.90
2023-02-04T03:30:12.934Z,5.00
2023-02-04T03:32:41.766Z,5.00
2023-02-04T03:35:10.215Z,5.00
2023-02-04T03:37:38.423Z,5.00
2023-02-04T03:40:07.730Z,5.00
2023-02-04T03:42:36.012Z,4.90
2023-02-04T03:45:04.336Z,4.90
2023-02-04T03:47:34.065Z,4.90
2023-02-04T03:50:02.331Z,4.90
2023-02-04T03:52:30.518Z,4.90
2023-02-04T03:54:58.822Z,4.90
2023-02-04T03:57:27.045Z,4.90
2023-02-04T03:59:55.263Z,4.90
2023-02-04T04:02:23.568Z,4.90
2023-02-04T04:04:53.170Z,4.90
2023-02-04T04:07:21.431Z,4.90
2023-02-04T04:09:49.618Z,4.90
2023-02-04T04:12:17.843Z,4.90
2023-02-04T04:14:46.017Z,4.80
2023-02-04T04:17:14.266Z,4.70
2023-02-04T04:19:44.311Z,4.70
2023-02-04T04:22:13.967Z,4.70
2023-02-04T04:24:42.715Z,4.80
2023-02-04T04:27:10.974Z,4.80
2023-02-04T04:29:39.175Z,4.80
2023-02-04T04:32:07.585Z,4.80
2023-02-04T04:34:35.791Z,4.80
2023-02-04T04:37:04.047Z,4.80
2023-02-04T04:39:33.672Z,4.90
2023-02-04T04:42:01.843Z,4.80
2023-02-04T04:44:30.021Z,4.80
2023-02-04T04:46:58.299Z,4.80
2023-02-04T04:49:26.728Z,4.70
2023-02-04T04:51:54.965Z,4.70
2023-02-04T04:54:23.147Z,4.70
2023-02-04T04:56:52.834Z,4.70
2023-02-04T04:59:21.026Z,4.70
2023-02-04T05:01:49.206Z,4.70
2023-02-04T05:04:17.380Z,4.70
2023-02-04T05:06:46.025Z,4.70
2023-02-04T05:09:15.247Z,4.70
2023-02-04T05:11:43.423Z,4.80
2023-02-04T05:14:12.987Z,4.70
2023-02-04T05:16:41.270Z,4.70
2023-02-04T05:19:09.525Z,4.80
2023-02-04T05:21:37.874Z,4.90
2023-02-04T05:24:06.739Z,4.90
2023-02-04T05:26:35.015Z,4.90
2023-02-04T05:29:03.244Z,4.80
2023-02-04T05:31:33.221Z,4.80
2023-02-04T05:34:01.944Z,4.80
2023-02-04T05:36:30.160Z,4.80
2023-02-04T05:38:58.319Z,4.80
2023-02-04T05:41:26.518Z,4.90
2023-02-04T05:43:54.764Z,4.90
2023-02-04T05:46:23.028Z,4.90
2023-02-04T05:48:52.605Z,5.00
2023-02-04T05:51:20.940Z,5.00
2023-02-04T05:53:49.686Z,5.10
2023-02-04T05:56:17.913Z,5.00
2023-02-04T05:58:46.409Z,5.10
2023-02-04T06:01:14.573Z,5.10
2023-02-04T06:03:42.864Z,5.20
2023-02-04T06:06:12.470Z,5.10
2023-02-04T06:08:40.691Z,5.10
2023-02-04T06:11:08.988Z,5.10
2023-02-04T06:13:37.193Z,5.10
2023-02-04T06:16:05.495Z,5.20
2023-02-04T06:18:33.664Z,5.20
2023-02-04T06:21:04.678Z,5.20
2023-02-04T06:23:34.732Z,5.20
2023-02-04T06:26:03.575Z,5.20
2023-02-04T06:28:31.793Z,5.20
2023-02-04T06:31:00.139Z,5.20
2023-02-04T06:33:28.713Z,5.20
2023-02-04T06:35:57.020Z,5.20
2023-02-04T06:38:25.365Z,5.20
2023-02-04T06:40:55.326Z,5.20
2023-02-04T06:43:25.508Z,5.20
2023-02-04T06:45:53.812Z,5.10
2023-02-04T06:48:22.557Z,5.20
2023-02-04T06:50:50.795Z,5.20
2023-02-04T06:53:19.004Z,5.10
2023-02-04T06:55:47.309Z,5.20
2023-02-04T06:58:16.879Z,5.10
2023-02-04T07:00:45.139Z,5.10
2023-02-04T07:03:13.292Z,5.20
2023-02-04T07:05:41.535Z,5.20
2023-02-04T07:08:09.724Z,5.20
2023-02-04T07:10:37.955Z,5.30
2023-02-04T07:13:06.222Z,5.30
2023-02-04T07:15:35.885Z,5.30
2023-02-04T07:18:04.120Z,5.40
2023-02-04T07:20:32.615Z,5.40
2023-02-04T07:23:00.978Z,5.40
2023-02-04T07:25:29.155Z,5.40
2023-02-04T07:27:59.409Z,5.50
2023-02-04T07:30:27.674Z,5.40
2023-02-04T07:32:57.254Z,5.40
2023-02-04T07:35:25.466Z,5.40
2023-02-04T07:37:53.641Z,5.40
2023-02-04T07:40:22.368Z,5.40
2023-02-04T07:42:50.575Z,5.30
2023-02-04T07:45:18.848Z,5.30
2023-02-04T07:47:47.042Z,5.40
2023-02-04T07:50:17.135Z,5.40
2023-02-04T07:52:45.298Z,5.50
2023-02-04T07:55:13.510Z,5.50
2023-02-04T07:57:41.670Z,5.50
2023-02-04T08:00:14.156Z,5.60
2023-02-04T08:02:42.432Z,5.60
2023-02-04T08:05:11.662Z,5.70
2023-02-04T08:07:41.399Z,5.60
2023-02-04T08:10:11.510Z,5.60
2023-02-04T08:12:39.759Z,5.70
2023-02-04T08:15:08.844Z,5.70
2023-02-04T08:17:37.155Z,5.80
2023-02-04T08:20:05.649Z,5.80
2023-02-04T08:22:35.117Z,5.80
2023-02-04T08:25:05.391Z,5.80
2023-02-04T08:27:33.663Z,5.80
2023-02-04T08:30:01.811Z,5.80
2023-02-04T08:32:31.227Z,5.80
2023-02-04T08:34:59.934Z,5.90
2023-02-04T08:37:28.372Z,5.90
2023-02-04T08:39:56.600Z,5.90
2023-02-04T08:42:26.319Z,6.00
2023-02-04T08:44:54.576Z,6.00
2023-02-04T08:47:22.781Z,6.00
2023-02-04T08:49:50.943Z,6.00
2023-02-04T08:52:19.455Z,6.10
2023-02-04T08:54:47.612Z,6.10
2023-02-04T08:57:15.840Z,6.10
2023-02-04T08:59:45.998Z,6.10
2023-02-04T09:02:14.343Z,6.10
2023-02-04T09:04:42.644Z,6.00
2023-02-04T09:07:10.811Z,6.00
2023-02-04T09:09:39.085Z,6.10
2023-02-04T09:12:07.341Z,6.10
2023-02-04T09:14:35.542Z,6.00
2023-02-04T09:17:05.901Z,6.10
2023-02-04T09:19:34.156Z,6.10
2023-02-04T09:22:02.313Z,6.10
2023-02-04T09:24:30.518Z,6.20
2023-02-04T09:26:58.693Z,6.30
2023-02-04T09:29:26.988Z,6.30
2023-02-04T09:31:55.225Z,6.40
2023-02-04T09:34:24.946Z,6.40
2023-02-04T09:36:53.135Z,6.30
2023-02-04T09:39:21.314Z,6.40
2023-02-04T09:41:49.676Z,6.40
2023-02-04T09:44:21.139Z,6.50
2023-02-04T09:46:51.715Z,6.50
2023-02-04T09:49:20.027Z,6.50
2023-02-04T09:51:51.078Z,6.60
2023-02-04T09:54:21.530Z,6.60
2023-02-04T09:56:50.584Z,6.60
2023-02-04T09:59:21.109Z,6.60
2023-02-04T10:01:53.655Z,6.60
2023-02-04T10:04:23.411Z,6.60
2023-02-04T10:06:53.284Z,6.60
2023-02-04T10:09:21.489Z,6.70
2023-02-04T10:11:50.153Z,6.80
2023-02-04T10:14:22.341Z,7.10
2023-02-04T10:16:58.625Z,7.40
2023-02-04T10:19:29.766Z,7.60
2023-02-04T10:21:59.675Z,7.60
2023-02-04T10:24:30.736Z,7.70
2023-02-04T10:27:08.942Z,7.90
2023-02-04T10:29:37.440Z,8.00
2023-02-04T10:32:05.887Z,8.00
2023-02-04T10:34:37.915Z,8.20
2023-02-04T10:37:20.996Z,8.20
2023-02-04T10:39:50.088Z,8.40
2023-02-04T10:42:23.179Z,8.40
2023-02-04T10:44:51.624Z,8.40
2023-02-04T10:47:22.162Z,8.40
2023-02-04T10:49:55.304Z,8.40
2023-02-04T10:52:29.706Z,8.50
2023-02-04T10:54:58.319Z,8.60
2023-02-04T10:57:29.530Z,8.60
2023-02-04T11:00:00.360Z,8.40
2023-02-04T11:02:44.661Z,8.50
2023-02-04T11:05:15.880Z,8.80
2023-02-04T11:07:46.391Z,8.70
2023-02-04T11:10:17.157Z,8.70
2023-02-04T11:12:47.701Z,9.00
2023-02-04T11:15:45.573Z,9.00
2023-02-04T11:18:26.068Z,9.00
2023-02-04T11:20:56.321Z,9.20
2023-02-04T11:23:35.048Z,9.60
2023-02-04T11:26:08.812Z,9.90
2023-02-04T11:28:49.284Z,10.20
2023-02-04T11:31:42.840Z,10.40
2023-02-04T11:34:25.094Z,10.60
2023-02-04T11:37:05.537Z,10.80
2023-02-04T11:39:38.417Z,10.90
2023-02-04T11:42:14.954Z,10.70
2023-02-04T11:44:43.174Z,10.90
2023-02-04T11:47:11.378Z,10.90
2023-02-04T11:49:39.637Z,10.80
2023-02-04T11:52:13.143Z,10.70
2023-02-04T11:54:42.737Z,10.60
2023-02-04T11:57:13.291Z,10.50
2023-02-04T11:59:41.531Z,10.50
2023-02-04T12:02:18.444Z,10.50
2023-02-04T12:04:55.289Z,10.50
2023-02-04T12:07:27.166Z,10.50
2023-02-04T12:09:57.651Z,10.50
2023-02-04T12:12:28.195Z,10.50
2023-02-04T12:15:04.065Z,10.50
2023-02-04T12:17:32.387Z,10.50
2023-02-04T12:20:00.761Z,10.40
2023-02-04T12:22:28.930Z,10.40
2023-02-04T12:24:58.528Z,10.30
2023-02-04T12:27:26.706Z,10.20
2023-02-04T12:29:54.991Z,10.20
2023-02-04T12:32:23.291Z,10.20
2023-02-04T12:34:51.555Z,10.20
2023-02-04T12:37:19.727Z,10.20
2023-02-04T12:39:47.925Z,10.10
2023-02-04T12:42:17.481Z,10.00
2023-02-04T12:44:45.696Z,9.90
2023-02-04T12:47:14.055Z,9.80
2023-02-04T12:49:42.296Z,9.70
2023-02-04T12:52:10.703Z,9.60
2023-02-04T12:54:38.868Z,9.40
2023-02-04T12:57:07.051Z,9.30
2023-02-04T12:59:36.607Z,9.30
2023-02-04T13:02:04.941Z,9.20
2023-02-04T13:04:33.191Z,9.20
2023-02-04T13:07:03.406Z,9.10
2023-02-04T13:09:31.830Z,9.10
2023-02-04T13:12:00.125Z,8.90
2023-02-04T13:14:28.333Z,8.80
2023-02-04T13:16:57.942Z,8.70
2023-02-04T13:19:26.169Z,8.70
2023-02-04T13:21:54.340Z,8.70
2023-02-04T13:24:22.544Z,8.80
2023-02-04T13:26:50.772Z,8.90
2023-02-04T13:29:19.435Z,8.90
2023-02-04T13:31:47.660Z,8.90
2023-02-04T13:34:17.322Z,9.00
2023-02-04T13:36:45.547Z,8.90
2023-02-04T13:39:13.756Z,8.90
2023-02-04T13:41:42.003Z,8.90
2023-02-04T13:44:10.274Z,8.90
2023-02-04T13:46:38.461Z,8.80
2023-02-04T13:49:06.683Z,8.80
2023-02-04T13:51:36.326Z,8.80
2023-02-04T13:54:04.670Z,8.70
2023-02-04T13:56:33.477Z,8.60
2023-02-04T13:59:01.664Z,8.50
2023-02-04T14:01:30.160Z,8.40
2023-02-04T14:03:58.422Z,8.40
2023-02-04T14:06:33.316Z,8.40
2023-02-04T14:09:03.269Z,8.40
2023-02-04T14:11:31.685Z,8.40
2023-02-04T14:13:59.870Z,8.40
2023-02-04T14:16:28.121Z,8.40
2023-02-04T14:18:56.423Z,8.40
2023-02-04T14:21:24.771Z,8.50
2023-02-04T14:23:52.943Z,8.50
2023-02-04T14:26:22.556Z,8.50
2023-02-04T14:28:50.755Z,8.60
2023-02-04T14:31:20.128Z,8.70
2023-02-04T14:33:50.364Z,8.70
2023-02-04T14:36:18.903Z,8.70
2023-02-04T14:38:47.179Z,8.70
2023-02-04T14:41:17.417Z,8.70
2023-02-04T14:43:47.060Z,8.70
2023-02-04T14:46:15.353Z,8.70
2023-02-04T14:48:45.434Z,8.70
2023-02-04T14:51:14.084Z,8.70
2023-02-04T14:53:46.130Z,8.70
2023-02-04T14:56:16.406Z,8.70
2023-02-04T14:58:46.002Z,8.70
2023-02-04T15:01:14.282Z,8.70
2023-02-04T15:03:42.503Z,8.60
2023-02-04T15:06:10.674Z,8.60
2023-02-04T15:08:39.028Z,8.50
2023-02-04T15:11:07.214Z,8.40
2023-02-04T15:13:35.461Z,8.30
2023-02-04T15:16:05.556Z,8.10
2023-02-04T15:18:34.097Z,8.00
2023-02-04T15:21:02.736Z,8.00
2023-02-04T15:23:31.012Z,7.80
2023-02-04T15:25:59.233Z,7.70
2023-02-04T15:28:29.124Z,7.50
2023-02-04T15:30:57.462Z,7.50
2023-02-04T15:33:27.163Z,7.50
2023-02-04T15:35:55.361Z,7.50
2023-02-04T15:38:23.590Z,7.50
2023-02-04T15:40:51.772Z,7.50
2023-02-04T15:43:20.002Z,7.50
2023-02-04T15:45:48.326Z,7.50
2023-02-04T15:48:16.710Z,7.40
2023-02-04T15:50:46.272Z,7.40
2023-02-04T15:53:14.485Z,7.40
2023-02-04T15:55:42.787Z,7.30
2023-02-04T15:58:11.104Z,7.20
2023-02-04T16:00:40.044Z,7.10
2023-02-04T16:03:08.242Z,7.10
2023-02-04T16:05:36.594Z,7.00
2023-02-04T16:08:06.393Z,7.10
2023-02-04T16:10:34.924Z,7.00
2023-02-04T16:13:03.376Z,7.00
2023-02-04T16:15:31.991Z,7.00
2023-02-04T16:18:00.431Z,6.90
2023-02-04T16:20:28.664Z,7.00
2023-02-04T16:22:57.095Z,6.90
2023-02-04T16:25:26.712Z,6.90
2023-02-04T16:27:54.963Z,6.90
2023-02-04T16:30:23.511Z,6.80
2023-02-04T16:32:51.751Z,6.80
2023-02-04T16:35:19.987Z,6.70
2023-02-04T16:37:48.303Z,6.70
2023-02-04T16:40:16.592Z,6.70
2023-02-04T16:42:46.195Z,6.60
2023-02-04T16:45:14.564Z,6.60
2023-02-04T16:47:43.373Z,6.60
2023-02-04T16:50:11.936Z,6.60
2023-02-04T16:52:40.154Z,6.60
2023-02-04T16:55:08.532Z,6.60
2023-02-04T16:57:36.768Z,6.60
2023-02-04T17:00:07.572Z,6.60
2023-02-04T17:02:37.362Z,6.60
2023-02-04T17:05:06.606Z,6.50
2023-02-04T17:07:34.832Z,6.50
2023-02-04T17:10:03.091Z,6.50
2023-02-04T17:12:31.311Z,6.40
2023-02-04T17:14:59.478Z,6.40
2023-02-04T17:17:29.075Z,6.40
2023-02-04T17:19:57.316Z,6.30
2023-02-04T17:22:25.548Z,6.20
2023-02-04T17:24:53.729Z,6.20
2023-02-04T17:27:21.891Z,6.10
2023-02-04T17:29:50.046Z,6.00
2023-02-04T17:32:18.257Z,5.90
2023-02-04T17:34:50.748Z,5.80
2023-02-04T17:37:18.974Z,5.80
2023-02-04T17:39:47.157Z,5.60
2023-02-04T17:42:15.371Z,5.60
2023-02-04T17:44:43.712Z,5.50
2023-02-04T17:47:11.923Z,5.30
2023-02-04T17:49:40.310Z,5.20
2023-02-04T17:52:10.002Z,5.20
2023-02-04T17:54:38.599Z,5.10
2023-02-04T17:57:18.011Z,5.00
2023-02-04T17:59:46.394Z,5.00
2023-02-04T18:02:26.743Z,4.90
2023-02-04T18:04:59.218Z,4.90
2023-02-04T18:07:29.050Z,4.80
2023-02-04T18:10:08.817Z,4.70
2023-02-04T18:12:37.052Z,4.70
2023-02-04T18:15:24.378Z,4.60
2023-02-04T18:17:54.175Z,4.60
2023-02-04T18:20:22.381Z,4.60
2023-02-04T18:22:56.500Z,4.50
2023-02-04T18:25:25.097Z,4.50
2023-02-04T18:27:54.206Z,4.50
2023-02-04T18:30:26.382Z,4.50
2023-02-04T18:32:55.779Z,4.50
2023-02-04T18:35:54.779Z,4.40
2023-02-04T18:38:28.469Z,4.40
2023-02-04T18:41:10.648Z,4.50
2023-02-04T18:43:38.995Z,4.50
2023-02-04T18:46:24.453Z,4.40
2023-02-04T18:49:08.760Z,4.50
2023-02-04T18:51:40.806Z,4.50
2023-02-04T18:54:34.126Z,4.50
2023-02-04T18:57:22.123Z,4.50
2023-02-04T18:59:53.969Z,4.50
2023-02-04T19:02:30.469Z,4.50
2023-02-04T19:05:12.786Z,4.50
2023-02-04T19:07:41.937Z,4.50
2023-02-04T19:10:28.640Z,4.40
2023-02-04T19:13:13.526Z,4.40
2023-02-04T19:15:41.826Z,4.40
2023-02-04T19:18:23.910Z,4.40
2023-02-04T19:20:52.680Z,4.40
2023-02-04T19:23:23.007Z,4.40
2023-02-04T19:25:53.841Z,4.40
2023-02-04T19:28:30.150Z,4.40
2023-02-04T19:31:02.104Z,4.50
2023-02-04T19:33:34.162Z,4.50
2023-02-04T19:36:21.864Z,4.50
2023-02-04T19:38:56.680Z,4.50
2023-02-04T19:41:30.265Z,4.50
2023-02-04T19:44:41.941Z,4.50
2023-02-04T19:47:26.496Z,4.50
2023-02-04T19:50:02.871Z,4.40
2023-02-04T19:52:35.919Z,4.40
2023-02-04T19:55:33.139Z,4.40
2023-02-04T19:58:12.333Z,4.40
2023-02-04T20:00:44.875Z,4.40
2023-02-04T20:03:28.821Z,4.40
2023-02-04T20:06:02.151Z,4.40
2023-02-04T20:08:43.785Z,4.40
2023-02-04T20:11:50.673Z,4.50
2023-02-04T20:14:55.364Z,4.40
2023-02-04T20:17:41.398Z,4.40
2023-02-04T20:20:20.993Z,4.40
2023-02-04T20:22:51.139Z,4.40
2023-02-04T20:25:45.110Z,4.40
2023-02-04T20:28:40.033Z,4.30
2023-02-04T20:31:28.616Z,4.30
2023-02-04T20:33:59.435Z,4.30
2023-02-04T20:36:43.222Z,4.30
2023-02-04T20:39:39.841Z,4.20
2023-02-04T20:42:35.794Z,4.20
2023-02-04T20:45:33.550Z,4.20
2023-02-04T20:48:25.409Z,4.20
2023-02-04T20:50:54.819Z,4.20
2023-02-04T20:53:25.698Z,4.10
2023-02-04T20:56:03.436Z,4.10
2023-02-04T20:58:37.628Z,4.10
2023-02-04T21:01:21.460Z,4.10
2023-02-04T21:03:51.967Z,4.10
2023-02-04T21:06:24.907Z,4.10
2023-02-04T21:08:54.134Z,4.10
2023-02-04T21:11:23.011Z,4.10
2023-02-04T21:13:52.885Z,4.10
2023-02-04T21:16:21.435Z,4.10
2023-02-04T21:18:51.025Z,4.10
2023-02-04T21:21:20.367Z,4.10
2023-02-04T21:23:48.603Z,4.10
2023-02-04T21:26:16.814Z,4.10
2023-02-04T21:28:45.209Z,4.10
2023-02-04T21:31:13.488Z,4.00
2023-02-04T21:33:42.001Z,4.00
2023-02-04T21:36:11.949Z,4.00
2023-02-04T21:38:40.107Z,4.00
2023-02-04T21:41:08.335Z,3.90
2023-02-04T21:43:36.568Z,3.90
2023-02-04T21:46:04.783Z,3.90
2023-02-04T21:48:33.073Z,3.90
2023-02-04T21:51:01.269Z,3.90
2023-02-04T21:53:30.854Z,3.80
2023-02-04T21:55:59.495Z,3.80
2023-02-04T21:58:27.815Z,3.80
2023-02-04T22:00:56.073Z,3.80
2023-02-04T22:03:24.328Z,3.80
2023-02-04T22:05:52.540Z,3.80
2023-02-04T22:08:20.727Z,3.70
2023-02-04T22:10:50.377Z,3.70
2023-02-04T22:13:18.602Z,3.60
2023-02-04T22:15:47.967Z,3.70
2023-02-04T22:18:16.388Z,3.70
2023-02-04T22:20:44.608Z,3.80
2023-02-04T22:23:12.795Z,3.90
2023-02-04T22:25:41.008Z,3.90
2023-02-04T22:28:10.626Z,4.00
2023-02-04T22:30:39.167Z,4.00
2023-02-04T22:33:07.628Z,4.00
2023-02-04T22:35:37.343Z,4.00
2023-02-04T22:38:05.765Z,4.00
2023-02-04T22:40:34.042Z,4.10
2023-02-04T22:43:02.259Z,4.00
2023-02-04T22:45:32.276Z,4.00
2023-02-04T22:48:00.968Z,4.00
2023-02-04T22:50:29.204Z,4.00
2023-02-04T22:52:57.421Z,3.90
2023-02-04T22:55:25.766Z,3.90
2023-02-04T22:57:53.941Z,3.90
2023-02-04T23:00:22.346Z,3.80
2023-02-04T23:02:51.910Z,3.80
2023-02-04T23:05:20.133Z,3.70
2023-02-04T23:07:48.381Z,3.70
2023-02-04T23:10:16.870Z,3.70
2023-02-04T23:12:45.094Z,3.70
2023-02-04T23:15:13.760Z,3.70
2023-02-04T23:17:41.970Z,3.70
2023-02-04T23:20:12.331Z,3.60
2023-02-04T23:22:40.814Z,3.60
2023-02-04T23:25:09.431Z,3.60
2023-02-04T23:27:37.780Z,3.60
2023-02-04T23:30:07.503Z,3.60
2023-02-04T23:32:36.031Z,3.60
2023-02-04T23:35:04.243Z,3.60
2023-02-04T23:37:33.878Z,3.60
2023-02-04T23:40:02.171Z,3.60
2023-02-04T23:42:31.924Z,3.60
2023-02-04T23:45:00.321Z,3.60
2023-02-04T23:47:28.533Z,3.60
2023-02-04T23:49:56.693Z,3.60
2023-02-04T23:52:24.931Z,3.60
2023-02-04T23:54:54.526Z,3.60
2023-02-04T23:57:22.747Z,3.50
2023-02-04T23:59:50.916Z,3.50
